This is the latest recevied weather packets stored in our database for station/object KB3FCJ-2. If no packets are shown the sender has not sent any weather packets the latest 10 day(s).
| Time | Temp. | Humidity | Pressure | Rain* | Wind** | Luminosity | Snow |
|---|---|---|---|---|---|---|---|
| 1777886218 | 8.33° C | 68% | 944.6 hPa | 0 mm | - | - | - |
| 1777885617 | 8.33° C | 69% | 944.6 hPa | 0 mm | - | - | - |
| 1777885018 | 7.78° C | 70% | 944.6 hPa | 0 mm | - | - | - |
| 1777884180 | 7.22° C | 72% | 944.6 hPa | 0 mm | - | - | - |
| 1777883580 | 7.22° C | 73% | 944.6 hPa | 0 mm | - | - | - |
| 1777882981 | 6.67° C | 72% | 944.6 hPa | 0 mm | - | - | - |
| 1777882380 | 6.67° C | 70% | 944.6 hPa | 0 mm | - | - | - |
| 1777881544 | 7.22° C | 67% | 944.6 hPa | 0 mm | - | - | - |
| 1777880943 | 7.22° C | 65% | 944.6 hPa | 0 mm | - | - | - |
| 1777880344 | 7.78° C | 64% | 944.6 hPa | 0 mm | - | - | - |
| 1777879744 | 7.78° C | 64% | 944.6 hPa | 0 mm | - | - | - |
| 1777878905 | 8.33° C | 63% | 944.6 hPa | 0 mm | - | - | - |
| 1777878305 | 8.33° C | 63% | 944.6 hPa | 0 mm | - | - | - |
| 1777877704 | 8.33° C | 62% | 944.6 hPa | 0 mm | - | - | - |
| 1777877105 | 8.89° C | 61% | 944.6 hPa | 0 mm | - | - | - |
| 1777876267 | 8.89° C | 60% | 944.6 hPa | 0 mm | - | - | - |
| 1777875668 | 8.89° C | 60% | 944.6 hPa | 0 mm | - | - | - |
| 1777875068 | 8.89° C | 58% | 944.6 hPa | 0 mm | - | - | - |
| 1777874467 | 8.89° C | 58% | 944.6 hPa | 0 mm | - | - | - |
| 1777873631 | 9.44° C | 56% | 944.6 hPa | 0 mm | - | - | - |
| 1777873030 | 9.44° C | 55% | 944.6 hPa | 0 mm | - | - | - |
| 1777872431 | 10° C | 54% | 944.6 hPa | 0 mm | - | - | - |
| 1777871831 | 10° C | 54% | 944.6 hPa | 0 mm | - | - | - |
| 1777871016 | 10° C | 54% | 944.6 hPa | 0 mm | - | - | - |
| 1777870415 | 10° C | 54% | 944.6 hPa | 0 mm | - | - | - |
* Rain latest hour (hover to see other rain measurements)
** Current wind speed in m/s (hover to see current wind gust speed)